CheckWX is a tool to help pilots better visualize weather data.  It is not intended as a substitute for an official pre-flight weather briefing.

03:19:03 UTC

LELO TAF
Logroño-Agoncillo Airport
Logroño, Spain
TAF LELO 270200Z 2703/2712 28008KT 9999 BKN025

May-27@
03:00 UTC

May-27 @ 03:00 UTC

May-27@
12:00 UTC

May-27 @ 12:00 UTC

TAF LELO 270200Z 2703/2712 28008KT 9999 BKN025
Wind
  • 280° at 8 KTS
Cloud Levels
  • Broken at 2,500' AGL